Time;durP1;ratioP1;P1;durP2;ratioP2;P2;SDS_P1;SDS_P2;PMS_P1;PMS_P2;Temp;Humidity;BMP_temperature;BMP_pressure;BME280_temperature;BME280_humidity;BME280_pressure;Samples;Min_cycle;Max_cycle;Signal;HPM_P1;HPM_P2
2022/11/15 00:01:01;;;;;;;0.40;0.40;;;16.30;95.00;;;;;;5115227;28;20278;-65
2022/11/15 00:03:53;;;;;;;0.40;0.40;;;16.30;95.00;;;;;;5116626;28;20274;-65
2022/11/15 00:06:41;;;;;;;0.40;0.40;;;16.30;95.00;;;;;;5117221;28;20278;-65
2022/11/15 00:09:29;;;;;;;0.40;0.40;;;16.30;95.00;;;;;;5130324;28;20225;-66
2022/11/15 00:12:17;;;;;;;0.40;0.40;;;16.30;95.00;;;;;;5134806;28;20205;-64
2022/11/15 00:15:06;;;;;;;1.85;1.85;;;16.20;95.10;;;;;;5132625;28;20269;-64
2022/11/15 00:17:54;;;;;;;0.40;0.40;;;16.20;95.20;;;;;;5117309;27;20582;-65
2022/11/15 00:20:43;;;;;;;0.40;0.40;;;16.20;95.10;;;;;;5116102;28;20274;-65
2022/11/15 00:23:31;;;;;;;0.40;0.40;;;16.20;95.00;;;;;;5116747;28;20712;-65
2022/11/15 00:26:20;;;;;;;0.40;0.40;;;16.20;94.90;;;;;;5114930;28;20195;-65
2022/11/15 00:29:08;;;;;;;0.50;0.50;;;16.30;95.00;;;;;;5115722;28;20247;-65
2022/11/15 00:31:56;;;;;;;0.40;0.40;;;16.20;95.00;;;;;;5115284;28;20227;-65
2022/11/15 00:34:44;;;;;;;0.40;0.40;;;16.20;95.00;;;;;;5115540;28;20328;-64
2022/11/15 00:37:33;;;;;;;0.40;0.40;;;16.20;95.00;;;;;;5115039;28;20278;-65
2022/11/15 00:40:21;;;;;;;0.40;0.40;;;16.20;95.00;;;;;;5116280;28;20278;-65
2022/11/15 00:43:09;;;;;;;0.40;0.40;;;16.20;95.00;;;;;;5114876;28;20254;-65
2022/11/15 00:45:58;;;;;;;0.40;0.40;;;16.20;95.10;;;;;;5116199;28;20201;-65
2022/11/15 00:48:46;;;;;;;0.40;0.40;;;16.10;95.10;;;;;;5115455;28;20226;-67
2022/11/15 00:51:34;;;;;;;0.40;0.40;;;16.20;95.10;;;;;;5116906;28;20274;-65
2022/11/15 00:54:23;;;;;;;0.40;0.40;;;16.10;95.00;;;;;;5115108;28;20633;-65
2022/11/15 00:57:11;;;;;;;1.58;1.48;;;16.10;94.80;;;;;;5114622;28;20282;-66
2022/11/15 00:59:59;;;;;;;0.40;0.40;;;16.10;95.00;;;;;;5114412;28;20272;-66
2022/11/15 01:02:47;;;;;;;1.48;1.48;;;16.10;95.00;;;;;;5113342;28;20697;-65
2022/11/15 01:05:38;;;;;;;0.50;0.50;;;16.10;95.00;;;;;;5113578;28;20663;-65
2022/11/15 01:08:26;;;;;;;0.40;0.40;;;16.10;94.80;;;;;;5114579;28;20227;-65
2022/11/15 01:11:15;;;;;;;0.40;0.40;;;16.10;94.90;;;;;;5113744;28;20282;-65
2022/11/15 01:14:03;;;;;;;0.40;0.40;;;16.10;95.00;;;;;;5113475;28;20278;-65
2022/11/15 01:16:51;;;;;;;0.40;0.40;;;16.10;95.00;;;;;;5113489;28;20206;-65
2022/11/15 01:19:39;;;;;;;0.40;0.40;;;16.10;95.00;;;;;;5121264;28;20296;-64
2022/11/15 01:22:27;;;;;;;0.60;0.60;;;16.20;94.90;;;;;;5126908;28;20227;-65
2022/11/15 01:25:16;;;;;;;0.40;0.40;;;16.10;94.80;;;;;;5127561;28;20192;-64
2022/11/15 01:28:05;;;;;;;0.50;0.50;;;16.10;95.00;;;;;;5127512;28;20253;-65
2022/11/15 01:30:53;;;;;;;0.40;0.40;;;16.10;95.00;;;;;;5128098;28;20638;-65
2022/11/15 01:33:41;;;;;;;0.40;0.40;;;16.10;95.10;;;;;;5127624;28;20195;-65
2022/11/15 01:36:29;;;;;;;0.40;0.40;;;16.50;95.20;;;;;;5125800;28;20215;-65
2022/11/15 01:39:17;;;;;;;0.40;0.40;;;16.00;94.90;;;;;;5125680;28;20230;-66
2022/11/15 01:42:05;;;;;;;0.40;0.40;;;16.00;94.90;;;;;;5124133;28;20281;-66
2022/11/15 01:44:55;;;;;;;0.40;0.40;;;16.00;95.00;;;;;;5123950;28;20196;-66
2022/11/15 01:47:49;;;;;;;0.40;0.40;;;16.00;94.70;;;;;;5122859;28;20280;-66
2022/11/15 01:50:37;;;;;;;0.40;0.40;;;16.00;94.90;;;;;;5121579;28;20201;-66
2022/11/15 01:53:26;;;;;;;0.40;0.40;;;16.00;95.20;;;;;;5122856;28;20286;-65
2022/11/15 01:56:18;;;;;;;0.40;0.40;;;16.00;95.10;;;;;;5123436;28;20233;-65
2022/11/15 01:59:08;;;;;;;0.40;0.40;;;16.00;95.10;;;;;;5122763;28;20215;-65
2022/11/15 02:01:57;;;;;;;0.40;0.40;;;15.90;95.00;;;;;;5118251;28;20231;-65
2022/11/15 02:04:48;;;;;;;0.60;0.60;;;16.10;94.90;;;;;;5115225;28;20687;-65
2022/11/15 02:07:36;;;;;;;0.40;0.40;;;16.00;94.90;;;;;;5116103;28;20274;-66
2022/11/15 02:10:25;;;;;;;0.40;0.40;;;16.00;95.10;;;;;;5114883;28;20702;-65
2022/11/15 02:13:14;;;;;;;0.40;0.40;;;16.00;95.10;;;;;;5114801;28;20771;-65
2022/11/15 02:16:14;;;;;;;0.40;0.40;;;16.00;94.90;;;;;;5114942;28;20219;-66
2022/11/15 02:19:16;;;;;;;0.40;0.40;;;16.00;95.00;;;;;;5114657;28;20222;-65
2022/11/15 02:22:22;;;;;;;0.40;0.40;;;16.00;95.00;;;;;;5113338;28;20199;-66
2022/11/15 02:25:27;;;;;;;0.50;0.50;;;15.90;95.00;;;;;;5113889;28;20803;-66
2022/11/15 02:28:35;;;;;;;0.40;0.40;;;16.00;95.10;;;;;;5113791;28;20696;-65
2022/11/15 02:31:30;;;;;;;0.40;0.40;;;15.90;94.90;;;;;;5113370;28;20206;-66
2022/11/15 02:34:33;;;;;;;0.40;0.40;;;16.00;94.70;;;;;;5112440;28;20744;-66
2022/11/15 02:37:30;;;;;;;0.40;0.40;;;15.90;95.00;;;;;;5112650;28;20805;-65
2022/11/15 02:40:28;;;;;;;0.40;0.40;;;16.00;95.10;;;;;;5114946;27;20282;-65
2022/11/15 02:49:44;;;;;;;0.40;0.40;;;15.90;94.80;;;;;;5112000;28;20227;-66
2022/11/15 02:52:32;;;;;;;0.40;0.40;;;15.90;95.00;;;;;;5111598;28;20231;-65
2022/11/15 02:55:30;;;;;;;0.40;0.40;;;15.90;94.70;;;;;;5111502;28;20198;-64
2022/11/15 02:58:54;;;;;;;0.40;0.40;;;15.90;94.90;;;;;;5112545;28;20292;-65
2022/11/15 03:01:56;;;;;;;0.40;0.40;;;15.90;94.90;;;;;;5112729;28;20325;-65
2022/11/15 03:04:53;;;;;;;0.40;0.40;;;15.90;94.90;;;;;;5111352;28;20281;-65
2022/11/15 03:07:49;;;;;;;0.40;0.40;;;15.90;97.30;;;;;;5111261;28;20675;-65
2022/11/15 03:10:46;;;;;;;0.40;0.40;;;15.90;94.90;;;;;;5112052;28;20234;-65
2022/11/15 03:13:40;;;;;;;0.40;0.40;;;15.80;94.90;;;;;;5111368;28;20203;-65
2022/11/15 03:16:35;;;;;;;0.50;0.50;;;15.80;94.90;;;;;;5112303;28;20290;-66
2022/11/15 03:19:32;;;;;;;0.50;0.50;;;15.90;94.90;;;;;;5111651;28;20290;-65
2022/11/15 03:22:25;;;;;;;0.40;0.40;;;15.90;95.00;;;;;;5112365;28;20278;-66
2022/11/15 03:25:19;;;;;;;0.40;0.40;;;15.80;94.80;;;;;;5111742;28;20604;-65
2022/11/15 03:28:12;;;;;;;0.40;0.40;;;15.80;94.90;;;;;;5112094;28;20298;-65
2022/11/15 03:31:46;;;;;;;0.40;0.40;;;15.90;94.80;;;;;;5111569;28;20274;-66
2022/11/15 03:34:16;;;;;;;0.40;0.40;;;15.80;94.80;;;;;;5111461;28;20280;-66
2022/11/15 03:37:06;;;;;;;0.55;0.55;;;15.80;94.70;;;;;;5113007;28;20211;-65
2022/11/15 03:39:54;;;;;;;0.40;0.40;;;15.80;94.80;;;;;;5090980;28;20307;-65
2022/11/15 03:42:49;;;;;;;1.40;1.30;;;15.70;94.90;;;;;;5091797;28;20196;-66
2022/11/15 03:45:43;;;;;;;0.40;0.40;;;15.80;94.80;;;;;;5091302;28;20196;-66
2022/11/15 03:48:36;;;;;;;0.40;0.40;;;15.90;94.70;;;;;;5090693;28;20628;-66
2022/11/15 03:51:24;;;;;;;0.40;0.40;;;15.80;94.70;;;;;;5090885;28;20293;-65
2022/11/15 03:54:14;;;;;;;0.40;0.40;;;15.80;95.30;;;;;;5090328;28;20338;-65
2022/11/15 03:57:02;;;;;;;0.40;0.40;;;15.80;94.80;;;;;;5090830;28;20297;-65
2022/11/15 03:59:50;;;;;;;0.40;0.40;;;15.80;94.70;;;;;;5090000;28;20212;-65
2022/11/15 04:02:38;;;;;;;0.40;0.40;;;15.80;94.80;;;;;;5093651;28;20320;-65
2022/11/15 04:05:27;;;;;;;0.40;0.40;;;15.80;94.70;;;;;;5094253;28;20287;-65
2022/11/15 04:08:15;;;;;;;0.40;0.40;;;15.80;94.70;;;;;;5094900;28;20252;-65
2022/11/15 04:11:04;;;;;;;0.40;0.40;;;15.80;94.80;;;;;;5094868;28;20306;-65
2022/11/15 04:13:52;;;;;;;0.40;0.40;;;15.80;94.70;;;;;;5094920;28;20839;-66
2022/11/15 04:16:40;;;;;;;0.40;0.40;;;15.80;94.80;;;;;;5094409;28;20247;-66
2022/11/15 04:25:43;;;;;;;0.40;0.40;;;15.70;94.80;;;;;;5094345;28;20279;-66
2022/11/15 04:28:32;;;;;;;0.40;0.40;;;15.80;94.80;;;;;;5093488;28;20337;-64
2022/11/15 04:31:20;;;;;;;0.40;0.40;;;15.80;94.90;;;;;;5094491;28;20297;-66
2022/11/15 04:34:08;;;;;;;0.60;0.60;;;15.70;94.70;;;;;;5093751;28;20241;-65
2022/11/15 04:37:15;;;;;;;0.43;0.43;;;15.70;94.90;;;;;;5093952;28;20698;-65
2022/11/15 04:40:04;;;;;;;0.40;0.40;;;15.70;94.60;;;;;;5114433;22;20318;-64
2022/11/15 04:42:52;;;;;;;0.50;0.50;;;15.70;94.90;;;;;;5095031;28;20279;-63
2022/11/15 04:45:42;;;;;;;0.40;0.40;;;15.70;94.80;;;;;;5093999;28;20678;-63
2022/11/15 04:48:30;;;;;;;0.40;0.40;;;15.70;94.90;;;;;;5093852;28;20251;-67
2022/11/15 04:51:18;;;;;;;0.40;0.40;;;15.40;94.60;;;;;;5095557;28;20231;-64
2022/11/15 04:54:06;;;;;;;0.57;0.57;;;15.80;94.90;;;;;;5094919;28;20275;-67
2022/11/15 04:56:54;;;;;;;0.40;0.40;;;15.70;95.00;;;;;;5096128;27;20303;-64
2022/11/15 04:59:42;;;;;;;0.40;0.40;;;15.70;94.80;;;;;;5093754;28;20298;-64
2022/11/15 05:05:34;;;;;;;0.40;0.40;;;15.70;94.90;;;;;;5094999;28;20385;-62
2022/11/15 05:08:22;;;;;;;0.50;0.50;;;15.70;94.80;;;;;;5093910;28;20306;-65
2022/11/15 05:11:10;;;;;;;0.50;0.50;;;15.70;94.90;;;;;;5094056;28;20313;-64
2022/11/15 05:13:58;;;;;;;0.40;0.40;;;15.70;94.90;;;;;;5093593;28;20279;-63
2022/11/15 05:16:46;;;;;;;0.50;0.50;;;15.70;94.90;;;;;;5094717;28;20216;-65
2022/11/15 05:19:35;;;;;;;0.40;0.40;;;15.70;94.70;;;;;;5093135;28;20318;-64
2022/11/15 05:22:23;;;;;;;0.50;0.50;;;15.80;94.90;;;;;;5093954;28;20339;-64
2022/11/15 05:25:11;;;;;;;0.50;0.50;;;15.70;94.80;;;;;;5094513;28;20228;-65
2022/11/15 05:27:59;;;;;;;0.40;0.40;;;15.70;94.90;;;;;;5093954;28;20669;-63
2022/11/15 05:30:47;;;;;;;0.40;0.40;;;15.70;94.80;;;;;;5093033;28;20329;-64
2022/11/15 05:33:36;;;;;;;0.40;0.40;;;15.60;94.80;;;;;;5093338;28;20297;-66
2022/11/15 05:36:32;;;;;;;0.40;0.40;;;15.70;94.80;;;;;;5093474;28;20637;-63
2022/11/15 05:39:20;;;;;;;0.40;0.40;;;15.70;94.80;;;;;;5093302;28;20320;-63
2022/11/15 05:42:10;;;;;;;0.40;0.40;;;15.80;95.10;;;;;;5093822;28;20275;-63
2022/11/15 05:45:00;;;;;;;0.40;0.40;;;15.70;94.70;;;;;;5094530;28;20274;-64
2022/11/15 05:47:49;;;;;;;0.40;0.40;;;15.70;94.80;;;;;;5093555;28;20224;-63
2022/11/15 05:50:40;;;;;;;0.50;0.50;;;15.70;94.70;;;;;;5093266;28;20677;-65
2022/11/15 05:53:30;;;;;;;0.40;0.40;;;15.70;94.90;;;;;;5093078;28;20231;-63
2022/11/15 05:56:18;;;;;;;0.40;0.40;;;15.70;94.80;;;;;;5093052;28;20570;-64
2022/11/15 05:59:08;;;;;;;0.40;0.40;;;15.60;94.80;;;;;;5092977;28;20219;-67
2022/11/15 06:01:57;;;;;;;0.50;0.50;;;15.70;94.90;;;;;;5094752;28;20284;-63
2022/11/15 06:04:45;;;;;;;0.40;0.40;;;15.70;94.90;;;;;;5094150;28;20203;-64
2022/11/15 06:07:33;;;;;;;0.40;0.40;;;15.70;95.10;;;;;;5094889;28;20196;-63
2022/11/15 06:10:22;;;;;;;0.40;0.40;;;15.60;94.70;;;;;;5092656;28;20220;-64
2022/11/15 06:13:10;;;;;;;0.40;0.40;;;15.60;94.70;;;;;;5093823;28;20291;-65
2022/11/15 06:15:58;;;;;;;0.40;0.40;;;15.70;94.90;;;;;;5094228;28;20283;-66
2022/11/15 06:18:46;;;;;;;0.40;0.40;;;15.60;94.70;;;;;;5094425;28;20583;-65
2022/11/15 06:21:34;;;;;;;0.40;0.40;;;15.60;94.70;;;;;;5094131;28;20203;-66
2022/11/15 06:24:22;;;;;;;0.40;0.40;;;15.60;94.70;;;;;;5093777;28;20196;-66
2022/11/15 06:27:12;;;;;;;0.40;0.40;;;15.60;94.70;;;;;;5093571;28;20664;-64
2022/11/15 06:30:00;;;;;;;0.50;0.50;;;15.60;94.70;;;;;;5092604;28;20306;-66
2022/11/15 06:32:49;;;;;;;0.40;0.40;;;15.70;94.90;;;;;;5093638;28;20333;-65
2022/11/15 06:35:37;;;;;;;0.40;0.40;;;15.60;94.80;;;;;;5094154;28;20313;-65
2022/11/15 06:38:25;;;;;;;0.40;0.40;;;15.70;94.80;;;;;;5086150;28;20644;-66
2022/11/15 06:41:14;;;;;;;0.40;0.40;;;15.60;95.00;;;;;;5083383;28;20205;-69
2022/11/15 06:44:04;;;;;;;0.40;0.40;;;15.60;95.00;;;;;;5092161;28;20690;-63
2022/11/15 06:46:52;;;;;;;0.40;0.40;;;15.60;95.30;;;;;;5093606;28;20207;-64
2022/11/15 06:49:40;;;;;;;0.40;0.40;;;15.70;95.30;;;;;;5090804;28;20263;-64
2022/11/15 06:52:32;;;;;;;2.90;2.80;;;15.70;95.30;;;;;;5089639;28;20278;-65
2022/11/15 06:55:20;;;;;;;0.40;0.40;;;15.70;95.30;;;;;;5100423;28;20686;-65
2022/11/15 06:58:08;;;;;;;0.40;0.40;;;15.70;95.20;;;;;;5091158;28;20224;-63
2022/11/15 07:01:01;;;;;;;0.40;0.40;;;15.80;95.00;;;;;;5097597;28;20239;-64
2022/11/15 07:03:49;;;;;;;0.40;0.40;;;15.60;94.70;;;;;;5099484;28;20706;-65
2022/11/15 07:06:37;;;;;;;0.40;0.40;;;15.60;94.50;;;;;;5097855;28;20253;-64
2022/11/15 07:09:25;;;;;;;0.40;0.40;;;15.60;94.50;;;;;;5101866;28;20238;-65
2022/11/15 07:12:14;;;;;;;0.40;0.40;;;15.60;94.50;;;;;;5097040;28;20291;-66
2022/11/15 07:15:02;;;;;;;0.40;0.40;;;15.60;94.30;;;;;;5092354;28;20643;-66
2022/11/15 07:17:51;;;;;;;0.40;0.40;;;15.60;94.40;;;;;;5091661;28;20773;-66
2022/11/15 07:20:40;;;;;;;0.40;0.40;;;15.70;94.50;;;;;;5088600;28;20346;-64
2022/11/15 07:23:28;;;;;;;0.40;0.40;;;15.80;94.60;;;;;;5086355;28;20740;-67
2022/11/15 07:26:16;;;;;;;0.40;0.40;;;15.70;94.40;;;;;;5092540;28;20275;-65
2022/11/15 07:29:05;;;;;;;0.40;0.40;;;15.70;94.50;;;;;;5083574;28;20208;-65
2022/11/15 07:31:53;;;;;;;0.40;0.40;;;15.80;94.70;;;;;;5092193;28;20228;-63
2022/11/15 07:34:42;;;;;;;0.47;0.47;;;15.70;94.60;;;;;;5092700;28;20263;-63
2022/11/15 07:37:30;;;;;;;0.40;0.40;;;15.70;94.50;;;;;;5096654;28;20207;-65
2022/11/15 07:40:18;;;;;;;0.40;0.40;;;15.70;94.50;;;;;;5095116;28;20306;-63
2022/11/15 07:43:08;;;;;;;0.40;0.40;;;15.70;94.70;;;;;;5087231;28;20323;-63
2022/11/15 07:45:56;;;;;;;0.93;0.93;;;15.80;94.80;;;;;;5097088;28;20280;-64
2022/11/15 07:48:46;;;;;;;0.40;0.40;;;15.80;94.70;;;;;;5095991;28;20263;-64
2022/11/15 07:51:36;;;;;;;0.40;0.40;;;15.80;94.80;;;;;;5093233;28;20691;-64
2022/11/15 07:54:24;;;;;;;0.40;0.40;;;15.90;94.90;;;;;;5085217;28;20284;-64
2022/11/15 07:57:12;;;;;;;0.73;0.73;;;15.80;94.70;;;;;;5084553;28;20626;-64
2022/11/15 08:00:00;;;;;;;0.40;0.40;;;15.80;94.80;;;;;;5112052;28;20219;-64
2022/11/15 08:02:48;;;;;;;0.40;0.40;;;15.80;94.80;;;;;;5116911;28;20268;-63
2022/11/15 08:05:37;;;;;;;0.40;0.40;;;15.80;94.80;;;;;;5116935;28;20694;-63
2022/11/15 08:08:27;;;;;;;0.40;0.40;;;15.80;94.80;;;;;;5116084;28;20643;-64
2022/11/15 08:11:15;;;;;;;0.40;0.40;;;15.80;94.90;;;;;;5100229;28;20250;-63
2022/11/15 08:14:03;;;;;;;0.40;0.40;;;15.80;94.70;;;;;;5093800;28;20577;-64
2022/11/15 08:16:52;;;;;;;0.52;0.52;;;15.80;95.00;;;;;;5096267;28;20696;-63
2022/11/15 08:19:40;;;;;;;0.40;0.40;;;15.80;94.90;;;;;;5094752;28;20630;-65
2022/11/15 08:22:28;;;;;;;2.58;2.47;;;15.80;94.80;;;;;;5095078;28;20329;-65
2022/11/15 08:25:18;;;;;;;0.40;0.40;;;15.80;95.00;;;;;;5092878;28;20232;-66
2022/11/15 08:28:07;;;;;;;0.40;0.40;;;15.80;94.90;;;;;;5095667;28;20261;-67
2022/11/15 08:30:55;;;;;;;0.40;0.40;;;15.80;95.00;;;;;;5102994;28;20317;-65
2022/11/15 08:33:44;;;;;;;0.60;0.60;;;15.80;95.00;;;;;;5115374;28;20280;-63
2022/11/15 08:36:33;;;;;;;0.40;0.40;;;15.80;95.00;;;;;;5089623;28;20200;-64
2022/11/15 08:39:31;;;;;;;0.75;0.75;;;15.80;95.10;;;;;;5081375;28;20285;-64
2022/11/15 08:42:21;;;;;;;0.40;0.40;;;15.80;95.10;;;;;;5103396;28;20279;-64
2022/11/15 08:45:10;;;;;;;2.33;2.20;;;15.80;95.00;;;;;;5094473;28;20231;-65
2022/11/15 08:47:58;;;;;;;0.40;0.40;;;15.80;95.10;;;;;;5095490;28;20228;-64
2022/11/15 08:50:46;;;;;;;0.40;0.40;;;15.80;95.10;;;;;;5095540;28;20832;-65
2022/11/15 08:53:35;;;;;;;0.77;0.77;;;15.80;95.10;;;;;;5096112;28;20871;-64
2022/11/15 08:56:23;;;;;;;0.40;0.40;;;15.80;95.10;;;;;;5087337;28;20263;-65
2022/11/15 08:59:12;;;;;;;0.47;0.47;;;15.80;95.10;;;;;;5100950;28;20708;-66
2022/11/15 09:02:00;;;;;;;0.40;0.40;;;15.90;95.20;;;;;;5105524;28;20207;-64
2022/11/15 09:04:48;;;;;;;0.40;0.40;;;15.80;95.30;;;;;;5101704;28;20204;-65
2022/11/15 09:07:37;;;;;;;0.40;0.40;;;15.90;95.40;;;;;;5115039;28;20282;-65
2022/11/15 09:10:25;;;;;;;0.40;0.40;;;15.90;95.40;;;;;;5097194;28;20188;-65
2022/11/15 09:13:13;;;;;;;0.40;0.40;;;15.90;95.30;;;;;;5115485;28;20324;-65
2022/11/15 09:16:03;;;;;;;0.40;0.40;;;15.90;95.40;;;;;;5115416;28;20200;-65
2022/11/15 09:18:51;;;;;;;0.40;0.40;;;15.90;95.40;;;;;;5100554;28;20252;-65
2022/11/15 09:21:39;;;;;;;0.40;0.40;;;15.90;95.50;;;;;;5088374;28;20253;-65
2022/11/15 09:24:27;;;;;;;0.40;0.40;;;15.90;95.50;;;;;;5094486;28;20275;-65
2022/11/15 09:27:15;;;;;;;0.43;0.43;;;15.90;95.50;;;;;;5093659;28;20336;-66
2022/11/15 09:30:04;;;;;;;0.40;0.40;;;16.00;95.60;;;;;;5088382;27;20271;-65
2022/11/15 09:32:53;;;;;;;0.40;0.40;;;16.00;96.00;;;;;;5098654;28;20345;-64
2022/11/15 09:35:41;;;;;;;0.40;0.40;;;16.00;95.60;;;;;;5101499;28;20302;-64
2022/11/15 09:38:30;;;;;;;0.40;0.40;;;16.10;95.70;;;;;;5094170;28;20720;-65
2022/11/15 09:41:48;;;;;;;0.40;0.40;;;16.00;95.70;;;;;;5092810;28;20196;-65
2022/11/15 09:44:46;;;;;;;0.40;0.40;;;16.00;95.70;;;;;;5095045;28;20192;-65
2022/11/15 09:48:08;;;;;;;0.40;0.40;;;16.10;95.80;;;;;;5095326;28;20238;-65
2022/11/15 09:50:59;;;;;;;0.40;0.40;;;16.10;95.80;;;;;;5089388;28;20325;-65
2022/11/15 09:53:52;;;;;;;0.40;0.40;;;16.10;95.80;;;;;;5106123;28;20284;-65
2022/11/15 09:57:06;;;;;;;0.40;0.40;;;16.10;95.80;;;;;;5113722;28;20195;-65
2022/11/15 10:00:12;;;;;;;0.40;0.40;;;16.10;95.80;;;;;;5112551;28;20695;-64
2022/11/15 10:03:28;;;;;;;0.40;0.40;;;16.10;95.80;;;;;;5107246;28;20721;-64
2022/11/15 10:06:27;;;;;;;0.40;0.40;;;16.10;95.80;;;;;;5101636;28;20254;-64
2022/11/15 10:09:19;;;;;;;0.40;0.40;;;16.10;95.90;;;;;;5104132;28;20222;-65
2022/11/15 10:12:13;;;;;;;0.40;0.40;;;16.10;95.90;;;;;;5115089;28;20199;-65
2022/11/15 10:15:04;;;;;;;0.40;0.40;;;16.10;95.90;;;;;;5113123;28;20336;-63
2022/11/15 10:18:16;;;;;;;0.40;0.40;;;16.10;95.90;;;;;;5083829;28;20248;-65
2022/11/15 10:21:17;;;;;;;0.40;0.40;;;16.10;95.90;;;;;;5093641;28;20227;-65
2022/11/15 10:24:12;;;;;;;0.40;0.40;;;16.10;95.90;;;;;;5104718;28;20191;-64
2022/11/15 10:27:01;;;;;;;0.40;0.40;;;16.10;96.00;;;;;;5093613;28;20261;-65
2022/11/15 10:29:50;;;;;;;0.40;0.40;;;16.10;96.00;;;;;;5082521;28;20314;-64
2022/11/15 10:32:39;;;;;;;0.45;0.45;;;16.10;96.00;;;;;;5099194;28;20280;-65
2022/11/15 10:35:30;;;;;;;0.40;0.40;;;16.20;96.10;;;;;;5085975;28;20288;-65
2022/11/15 10:38:19;;;;;;;0.40;0.40;;;16.20;96.10;;;;;;5103161;28;20223;-64
2022/11/15 10:41:08;;;;;;;0.45;0.45;;;16.20;96.10;;;;;;5092013;27;20231;-64
2022/11/15 10:44:18;;;;;;;0.40;0.40;;;16.20;96.10;;;;;;5105687;28;20283;-65
2022/11/15 10:47:35;;;;;;;0.40;0.40;;;16.20;96.10;;;;;;5084796;28;20229;-65
2022/11/15 10:50:30;;;;;;;0.40;0.40;;;16.20;96.10;;;;;;5086862;28;20196;-64
2022/11/15 10:53:28;;;;;;;0.40;0.40;;;16.20;96.20;;;;;;5092917;28;20232;-65
2022/11/15 10:56:23;;;;;;;0.40;0.40;;;16.20;96.20;;;;;;5093477;28;20680;-64
2022/11/15 10:59:18;;;;;;;0.77;0.77;;;16.20;96.20;;;;;;5089176;28;20223;-64
2022/11/15 11:02:27;;;;;;;0.40;0.40;;;16.30;96.30;;;;;;5100979;28;20235;-65
2022/11/15 11:05:28;;;;;;;0.40;0.40;;;16.30;96.30;;;;;;5094945;28;20207;-65
2022/11/15 11:08:25;;;;;;;0.40;0.40;;;16.30;96.10;;;;;;5100792;28;20290;-64
2022/11/15 11:11:13;;;;;;;0.40;0.40;;;16.30;96.30;;;;;;5092123;28;20200;-65
2022/11/15 11:14:13;;;;;;;0.40;0.40;;;16.30;96.30;;;;;;5085108;28;20203;-65
2022/11/15 11:17:06;;;;;;;0.40;0.40;;;16.30;96.30;;;;;;5093656;28;20232;-65
2022/11/15 11:20:03;;;;;;;0.50;0.50;;;16.30;96.30;;;;;;5092996;28;20234;-64
2022/11/15 11:23:09;;;;;;;0.40;0.40;;;16.30;96.30;;;;;;5082182;28;20212;-64
2022/11/15 11:26:11;;;;;;;0.40;0.40;;;16.30;96.30;;;;;;5090318;28;20333;-64
2022/11/15 11:29:17;;;;;;;0.40;0.40;;;16.40;96.40;;;;;;5091381;28;20225;-66
2022/11/15 11:32:27;;;;;;;0.40;0.40;;;16.40;96.40;;;;;;5112723;28;20227;-65
2022/11/15 11:35:23;;;;;;;0.40;0.40;;;16.40;96.50;;;;;;5112829;28;20280;-65
2022/11/15 11:38:26;;;;;;;0.40;0.40;;;16.40;98.60;;;;;;5113298;28;20257;-65
2022/11/15 11:41:24;;;;;;;0.40;0.40;;;16.40;96.50;;;;;;5110437;28;20222;-65
2022/11/15 11:44:27;;;;;;;0.40;0.40;;;16.40;96.50;;;;;;5100193;28;20286;-64
2022/11/15 11:47:23;;;;;;;0.40;0.40;;;16.40;96.50;;;;;;5099396;28;20219;-65
2022/11/15 11:50:16;;;;;;;0.40;0.40;;;16.40;96.20;;;;;;5092412;28;20302;-65
2022/11/15 11:53:12;;;;;;;0.40;0.40;;;16.40;96.50;;;;;;5093226;28;20227;-64
2022/11/15 11:56:05;;;;;;;0.40;0.40;;;16.40;96.50;;;;;;5094505;28;20196;-64
2022/11/15 11:58:57;;;;;;;0.40;0.40;;;16.40;96.50;;;;;;5088271;28;20305;-64
2022/11/15 12:01:46;;;;;;;0.40;0.40;;;16.50;96.50;;;;;;5072072;28;20282;-65
2022/11/15 12:04:40;;;;;;;0.40;0.40;;;16.50;96.50;;;;;;5076450;28;20204;-65
2022/11/15 12:07:33;;;;;;;0.40;0.40;;;16.40;96.60;;;;;;5096620;28;20199;-64
2022/11/15 12:10:25;;;;;;;0.40;0.40;;;16.40;96.50;;;;;;5112885;28;20216;-65
2022/11/15 12:13:19;;;;;;;0.40;0.40;;;16.50;96.60;;;;;;5113195;28;20282;-64
2022/11/15 12:16:15;;;;;;;0.40;0.40;;;16.50;96.60;;;;;;5113023;28;20236;-65
2022/11/15 12:19:05;;;;;;;0.40;0.40;;;16.50;96.60;;;;;;5105510;28;20216;-64
2022/11/15 12:21:59;;;;;;;0.40;0.40;;;16.50;96.60;;;;;;5097281;28;20699;-65
2022/11/15 12:24:52;;;;;;;0.40;0.40;;;16.50;96.60;;;;;;5114262;28;20249;-65
2022/11/15 12:27:45;;;;;;;0.40;0.40;;;16.50;96.60;;;;;;5090439;27;20246;-65
2022/11/15 12:30:44;;;;;;;0.40;0.40;;;16.50;96.70;;;;;;5088682;28;20208;-64
2022/11/15 12:33:37;;;;;;;0.40;0.40;;;16.50;96.70;;;;;;5095923;28;20801;-65
2022/11/15 12:36:37;;;;;;;0.40;0.40;;;16.50;96.70;;;;;;5095277;28;20244;-65
2022/11/15 12:39:58;;;;;;;0.40;0.40;;;16.50;96.70;;;;;;5095142;28;20235;-65
2022/11/15 12:43:25;;;;;;;0.40;0.40;;;16.50;96.70;;;;;;5097922;28;20203;-64
2022/11/15 12:46:22;;;;;;;0.40;0.40;;;16.50;97.00;;;;;;5096504;28;20257;-65
2022/11/15 12:49:42;;;;;;;0.40;0.40;;;16.50;96.70;;;;;;5100073;28;20260;-65
2022/11/15 12:52:30;;;;;;;0.40;0.40;;;16.50;96.80;;;;;;5101699;28;20245;-65
2022/11/15 12:55:33;;;;;;;0.40;0.40;;;16.60;96.80;;;;;;5109661;28;20732;-65
2022/11/15 12:58:38;;;;;;;0.40;0.40;;;16.60;96.80;;;;;;5089155;28;20228;-65
2022/11/15 13:01:59;;;;;;;0.40;0.40;;;16.60;96.80;;;;;;5095089;28;20304;-66
2022/11/15 13:04:49;;;;;;;0.40;0.40;;;16.60;96.80;;;;;;5094304;28;20223;-65
2022/11/15 13:07:59;;;;;;;0.40;0.40;;;16.60;96.80;;;;;;5091651;28;20282;-65
2022/11/15 13:10:48;;;;;;;0.40;0.40;;;16.60;96.80;;;;;;5114900;28;20207;-64
2022/11/15 13:13:45;;;;;;;0.40;0.40;;;16.60;96.80;;;;;;5097448;28;20881;-64
2022/11/15 13:16:33;;;;;;;0.40;0.40;;;16.70;96.80;;;;;;5081339;28;20216;-65
2022/11/15 13:19:23;;;;;;;0.70;0.70;;;16.70;96.80;;;;;;5094849;28;20233;-65
2022/11/15 13:25:28;;;;;;;0.73;0.73;;;16.70;96.80;;;;;;5087661;28;20279;-65
2022/11/15 13:28:24;;;;;;;0.40;0.40;;;16.70;96.80;;;;;;5088865;28;20212;-65
2022/11/15 13:31:23;;;;;;;0.40;0.40;;;16.70;96.80;;;;;;5113828;28;20200;-65
2022/11/15 13:34:28;;;;;;;0.40;0.40;;;16.70;96.80;;;;;;5075347;28;20598;-65
2022/11/15 13:37:38;;;;;;;0.40;0.40;;;16.70;96.80;;;;;;5106825;28;20211;-65
2022/11/15 13:40:30;;;;;;;0.40;0.40;;;16.70;96.80;;;;;;5096168;28;20208;-64
2022/11/15 13:43:28;;;;;;;0.40;0.40;;;16.70;96.80;;;;;;5095758;28;20192;-65
2022/11/15 13:46:18;;;;;;;0.40;0.40;;;16.80;97.20;;;;;;5095000;28;20202;-65
2022/11/15 13:49:11;;;;;;;0.40;0.40;;;16.70;96.80;;;;;;5096180;27;20279;-65
2022/11/15 13:52:01;;;;;;;0.40;0.40;;;16.70;96.90;;;;;;5100848;28;20567;-65
2022/11/15 13:54:57;;;;;;;0.40;0.40;;;16.70;96.80;;;;;;5094308;28;20283;-64
2022/11/15 13:57:48;;;;;;;0.40;0.40;;;16.70;96.90;;;;;;5098689;28;20212;-65
2022/11/15 14:00:39;;;;;;;0.40;0.40;;;16.70;96.90;;;;;;5101022;28;20223;-65
2022/11/15 14:03:31;;;;;;;0.40;0.40;;;16.70;96.90;;;;;;5094644;28;20200;-65
2022/11/15 14:06:21;;;;;;;0.40;0.40;;;16.70;96.90;;;;;;5093428;28;20235;-65
2022/11/15 14:09:30;;;;;;;0.40;0.40;;;16.70;96.90;;;;;;5103791;28;20300;-65
2022/11/15 14:12:27;;;;;;;0.40;0.40;;;16.70;96.90;;;;;;5093083;28;20257;-65
2022/11/15 14:15:29;;;;;;;0.40;0.40;;;16.70;97.00;;;;;;5103654;28;21539;-65
2022/11/15 14:18:42;;;;;;;0.40;0.40;;;16.70;96.80;;;;;;5080692;28;20284;-65
2022/11/15 14:21:31;;;;;;;0.40;0.40;;;16.70;97.00;;;;;;5074713;28;20224;-64
2022/11/15 14:24:21;;;;;;;0.40;0.40;;;16.70;97.00;;;;;;5082155;28;20204;-64
2022/11/15 14:27:22;;;;;;;0.40;0.40;;;16.70;97.00;;;;;;5100437;28;20279;-65
2022/11/15 14:30:16;;;;;;;0.40;0.40;;;16.70;97.10;;;;;;5086986;28;20731;-65
2022/11/15 14:33:20;;;;;;;0.40;0.40;;;16.70;97.10;;;;;;5086081;28;20196;-65
2022/11/15 14:36:13;;;;;;;0.40;0.40;;;16.70;97.20;;;;;;5094175;28;20199;-65
2022/11/15 14:39:05;;;;;;;0.40;0.40;;;16.70;97.20;;;;;;5084861;28;20736;-65
2022/11/15 14:41:53;;;;;;;0.40;0.40;;;16.70;97.20;;;;;;5108549;28;20490;-64
2022/11/15 14:44:41;;;;;;;0.40;0.40;;;16.70;97.30;;;;;;5078919;28;20200;-65
2022/11/15 14:47:34;;;;;;;0.40;0.40;;;16.70;97.40;;;;;;5087233;28;20224;-65
2022/11/15 14:50:23;;;;;;;0.40;0.40;;;16.70;97.50;;;;;;5091724;28;20269;-65
2022/11/15 14:53:14;;;;;;;0.40;0.40;;;16.70;97.60;;;;;;5085819;28;20377;-65
2022/11/15 14:56:02;;;;;;;0.40;0.40;;;16.70;97.60;;;;;;5093540;28;20229;-65
2022/11/15 14:58:50;;;;;;;0.40;0.40;;;16.70;97.40;;;;;;5091062;28;20598;-65
2022/11/15 15:01:38;;;;;;;0.40;0.40;;;16.70;97.60;;;;;;5093086;28;20365;-65
2022/11/15 15:04:28;;;;;;;0.40;0.40;;;16.70;97.60;;;;;;5093874;28;20751;-66
2022/11/15 15:07:16;;;;;;;0.40;0.40;;;16.70;97.60;;;;;;5086070;28;20265;-65
2022/11/15 15:10:05;;;;;;;0.40;0.40;;;16.70;97.60;;;;;;5110208;28;20230;-65
2022/11/15 15:13:18;;;;;;;0.40;0.40;;;16.80;97.60;;;;;;5101330;28;20745;-64
2022/11/15 15:16:07;;;;;;;0.73;0.73;;;16.70;97.50;;;;;;5094701;28;20283;-65
2022/11/15 15:18:55;;;;;;;0.40;0.40;;;16.70;97.50;;;;;;5097256;28;20302;-66